Time;durP1;ratioP1;P1;durP2;ratioP2;P2;SDS_P1;SDS_P2;PMS_P1;PMS_P2;Temp;Humidity;BMP_temperature;BMP_pressure;BME280_temperature;BME280_humidity;BME280_pressure;Samples;Min_cycle;Max_cycle;Signal;HPM_P1;HPM_P2
2021/01/29 00:00:55;;;;;;;8.85;7.35;;;;;;;6.38;53.66;99867.06;4973824;28;96847;-68
2021/01/29 00:03:21;;;;;;;12.27;8.52;;;;;;;6.43;52.91;99859.09;4974948;28;96680;-68
2021/01/29 00:05:55;;;;;;;9.77;8.40;;;;;;;6.29;54.16;99860.50;4969218;28;97707;-68
2021/01/29 00:08:23;;;;;;;9.68;7.82;;;;;;;6.26;54.05;99850.25;4965070;28;98549;-68
2021/01/29 00:10:49;;;;;;;9.02;6.47;;;;;;;6.34;53.49;99846.50;4969510;28;96547;-68
2021/01/29 00:13:16;;;;;;;11.20;7.55;;;;;;;6.25;53.95;99847.72;4975815;28;96671;-68
2021/01/29 00:15:43;;;;;;;8.68;7.75;;;;;;;6.34;53.22;99847.38;4975232;28;98476;-67
2021/01/29 00:18:09;;;;;;;9.85;6.10;;;;;;;6.45;52.70;99840.03;4975589;28;98608;-68
2021/01/29 00:20:36;;;;;;;10.52;7.25;;;;;;;6.55;52.64;99837.91;4975449;28;96722;-69
2021/01/29 00:23:03;;;;;;;9.15;6.88;;;;;;;6.49;52.81;99827.78;4975860;28;97059;-68
2021/01/29 00:25:37;;;;;;;7.45;6.38;;;;;;;6.45;52.70;99826.25;4975012;28;98647;-68
2021/01/29 00:28:04;;;;;;;;;;;;;;;6.49;52.77;99820.03;4969961;28;98432;-68
2021/01/29 00:30:30;;;;;;;10.65;6.78;;;;;;;6.38;53.20;99822.19;4974922;28;97568;-68
2021/01/29 00:32:58;;;;;;;7.72;6.80;;;;;;;6.44;52.84;99814.19;4974550;28;96542;-69
2021/01/29 00:35:26;;;;;;;9.05;8.10;;;;;;;6.40;53.18;99813.50;4972067;28;98703;-68
2021/01/29 00:37:53;;;;;;;12.50;8.20;;;;;;;6.40;53.33;99815.25;4972654;28;98473;-68
2021/01/29 00:40:19;;;;;;;8.40;6.93;;;;;;;6.41;53.28;99816.91;4979224;28;96513;-68
2021/01/29 00:42:46;;;;;;;12.57;6.80;;;;;;;6.41;53.25;99815.16;4977149;28;96648;-68
2021/01/29 00:45:14;;;;;;;8.55;6.78;;;;;;;6.41;53.36;99810.00;4972457;28;98693;-68
2021/01/29 00:47:41;;;;;;;8.25;7.15;;;;;;;6.31;53.70;99793.13;4978739;28;97329;-68
2021/01/29 00:50:08;;;;;;;13.93;8.50;;;;;;;6.24;54.33;99789.94;4977624;28;97511;-68
2021/01/29 00:52:34;;;;;;;11.90;6.97;;;;;;;6.16;55.26;99781.63;4967547;28;98303;-68
2021/01/29 00:55:01;;;;;;;14.05;9.30;;;;;;;6.22;54.27;99783.97;4965608;28;98498;-68
2021/01/29 00:57:27;;;;;;;8.80;7.85;;;;;;;6.16;54.70;99776.44;4969003;28;99819;-68
2021/01/29 01:00:13;;;;;;;8.50;6.82;;;;;;;6.26;54.20;99770.00;4966958;28;99231;-68
2021/01/29 01:02:46;;;;;;;10.52;7.82;;;;;;;6.28;54.18;99763.03;4968874;28;99102;-68
2021/01/29 01:05:15;;;;;;;10.10;7.47;;;;;;;6.16;54.74;99763.50;4971881;28;102708;-69
2021/01/29 01:07:41;;;;;;;10.20;8.05;;;;;;;6.16;54.60;99753.16;4967867;28;98587;-68
2021/01/29 01:10:33;;;;;;;8.82;7.93;;;;;;;6.23;54.27;99746.84;4968419;28;97512;-68
2021/01/29 01:13:35;;;;;;;10.48;8.45;;;;;;;5.93;55.03;99745.47;4969393;28;99402;-68
2021/01/29 01:16:21;;;;;;;11.18;8.38;;;;;;;5.97;55.28;99741.88;4963392;28;99074;-68
2021/01/29 01:18:50;;;;;;;13.38;8.35;;;;;;;6.02;54.57;99745.13;4967822;28;97303;-68
2021/01/29 01:21:46;;;;;;;10.98;7.07;;;;;;;5.93;55.11;99740.28;4964134;28;98727;-68
2021/01/29 01:24:39;;;;;;;9.68;7.43;;;;;;;5.86;55.84;99738.81;4965241;28;97962;-68
2021/01/29 01:27:16;;;;;;;9.07;6.88;;;;;;;5.95;55.16;99741.06;4968788;28;98506;-69
2021/01/29 01:30:07;;;;;;;11.32;7.07;;;;;;;5.94;55.51;99731.63;4964359;28;100104;-67
2021/01/29 01:32:37;;;;;;;9.50;6.85;;;;;;;5.99;55.15;99724.53;4963909;28;97881;-69
2021/01/29 01:35:33;;;;;;;10.15;6.90;;;;;;;6.02;55.70;99730.44;4983676;28;97569;-68
2021/01/29 01:38:00;;;;;;;9.18;6.93;;;;;;;6.03;55.50;99741.63;4964276;28;100191;-68
2021/01/29 01:40:44;;;;;;;8.73;6.78;;;;;;;6.03;55.68;99733.88;4964187;28;101758;-68
2021/01/29 01:43:16;;;;;;;9.68;6.80;;;;;;;5.97;56.15;99724.59;4968765;28;97364;-69
2021/01/29 01:45:59;;;;;;;7.18;5.80;;;;;;;6.01;56.75;99723.56;4968980;28;97051;-69
2021/01/29 01:48:55;;;;;;;6.93;5.75;;;;;;;5.97;56.63;99714.25;4965061;28;97383;-69
2021/01/29 01:51:43;;;;;;;8.35;6.05;;;;;;;6.06;56.11;99694.91;4964353;28;98459;-68
2021/01/29 01:54:23;;;;;;;11.52;6.20;;;;;;;6.00;56.99;99693.41;4948937;28;96674;-68
2021/01/29 01:56:51;;;;;;;13.50;7.15;;;;;;;5.70;56.66;99685.09;4964118;28;99392;-68
2021/01/29 01:59:31;;;;;;;12.13;8.38;;;;;;;5.23;57.54;99702.41;4965905;28;97455;-69
2021/01/29 02:02:22;;;;;;;10.35;6.95;;;;;;;5.29;57.50;99693.59;4965335;28;97463;-68
2021/01/29 02:05:29;;;;;;;9.95;7.20;;;;;;;5.25;57.49;99704.03;4956297;28;97466;-66
2021/01/29 02:08:30;;;;;;;10.63;8.80;;;;;;;5.34;56.96;99700.28;4969714;28;97824;-67
2021/01/29 02:11:16;;;;;;;;;;;;;;;5.25;57.44;99690.25;4968463;28;97142;-68
2021/01/29 02:14:06;;;;;;;9.93;8.60;;;;;;;5.23;56.55;99680.00;4965356;28;98842;-67
2021/01/29 02:17:01;;;;;;;;;;;;;;;5.26;56.75;99682.44;4970292;28;97002;-67
2021/01/29 02:20:00;;;;;;;12.63;9.63;;;;;;;5.16;56.52;99686.25;4968015;28;99564;-67
2021/01/29 02:22:58;;;;;;;11.60;10.23;;;;;;;5.13;56.34;99681.22;4962868;28;98698;-67
2021/01/29 02:26:16;;;;;;;11.85;9.88;;;;;;;5.00;56.66;99675.66;4964926;28;96886;-68
2021/01/29 02:29:07;;;;;;;11.63;10.45;;;;;;;4.96;56.38;99678.41;4965838;28;96917;-67
2021/01/29 02:32:25;;;;;;;11.30;10.00;;;;;;;5.00;56.24;99669.63;4966661;28;97883;-68
2021/01/29 02:35:34;;;;;;;17.38;11.25;;;;;;;5.18;55.27;99670.72;4957708;28;100487;-68
2021/01/29 02:38:29;;;;;;;13.15;11.40;;;;;;;5.01;55.02;99684.28;4965891;28;100894;-67
2021/01/29 02:41:19;;;;;;;16.83;12.23;;;;;;;4.85;55.94;99685.72;4959200;28;97262;-68
2021/01/29 02:44:24;;;;;;;14.80;11.52;;;;;;;5.04;56.30;99701.38;4969668;28;96736;-68
2021/01/29 02:47:15;;;;;;;14.77;13.20;;;;;;;5.09;56.38;99715.81;4958405;28;97643;-67
2021/01/29 02:50:26;;;;;;;17.00;13.30;;;;;;;4.94;56.56;99709.44;4957978;28;97840;-68
2021/01/29 02:53:48;;;;;;;14.52;12.65;;;;;;;5.05;56.09;99696.16;4950340;28;98090;-68
2021/01/29 02:57:04;;;;;;;17.52;11.85;;;;;;;4.97;56.49;99706.78;4943299;28;97255;-68
2021/01/29 02:59:52;;;;;;;15.95;13.20;;;;;;;5.13;55.76;99701.91;4968306;28;97894;-68
2021/01/29 03:02:54;;;;;;;17.17;12.95;;;;;;;5.15;55.48;99694.91;4954140;28;97832;-68
2021/01/29 03:06:01;;;;;;;15.40;13.82;;;;;;;4.94;56.96;99687.94;4952370;28;96674;-68
2021/01/29 03:08:35;;;;;;;25.48;13.02;;;;;;;5.06;56.08;99687.53;4939623;28;99119;-68
2021/01/29 03:11:24;;;;;;;16.67;13.68;;;;;;;4.99;55.81;99693.78;4961317;28;97040;-67
2021/01/29 03:14:18;;;;;;;16.08;12.35;;;;;;;5.01;55.93;99707.53;4965202;28;99685;-67
2021/01/29 03:17:13;;;;;;;13.32;11.52;;;;;;;5.00;55.85;99698.91;4963184;28;97497;-68
2021/01/29 03:20:07;;;;;;;16.40;11.32;;;;;;;5.01;56.15;99699.75;4967148;28;97376;-68
2021/01/29 03:22:57;;;;;;;14.02;11.45;;;;;;;4.85;57.77;99707.22;4965591;28;97359;-68
2021/01/29 03:25:47;;;;;;;15.73;9.90;;;;;;;4.94;57.21;99687.94;4980196;28;97201;-68
2021/01/29 03:28:36;;;;;;;10.55;9.13;;;;;;;4.93;57.51;99689.69;4953295;28;96647;-69
2021/01/29 03:31:21;;;;;;;12.60;9.45;;;;;;;4.92;57.82;99698.34;4950547;28;100513;-68
2021/01/29 03:34:09;;;;;;;12.40;9.88;;;;;;;4.98;58.05;99699.88;4953764;28;97082;-68
2021/01/29 03:36:58;;;;;;;11.10;8.80;;;;;;;4.97;58.07;99719.69;4963592;28;97128;-67
2021/01/29 03:39:43;;;;;;;10.90;9.00;;;;;;;5.05;58.35;99703.91;4966001;28;96750;-68
2021/01/29 03:42:51;;;;;;;10.57;7.03;;;;;;;4.90;59.02;99705.31;4965619;28;97185;-68
2021/01/29 03:45:48;;;;;;;13.70;9.70;;;;;;;4.99;58.58;99689.47;4964616;28;97106;-68
2021/01/29 03:48:36;;;;;;;11.13;9.30;;;;;;;4.96;58.89;99701.66;4964897;28;98648;-68
2021/01/29 03:51:49;;;;;;;10.23;7.80;;;;;;;5.03;58.79;99699.69;4964399;28;97199;-69
2021/01/29 03:54:48;;;;;;;9.85;7.90;;;;;;;4.94;59.23;99700.88;4967149;28;97257;-69
2021/01/29 03:57:38;;;;;;;10.75;8.77;;;;;;;4.96;59.19;99699.09;4965470;28;97153;-69
2021/01/29 04:00:46;;;;;;;25.75;10.07;;;;;;;5.03;58.52;99704.88;4965910;28;97470;-68
2021/01/29 04:03:36;;;;;;;12.40;8.40;;;;;;;5.05;58.43;99693.56;4965786;28;99119;-68
2021/01/29 04:06:26;;;;;;;13.05;8.18;;;;;;;5.11;58.50;99683.00;4965259;28;99996;-68
2021/01/29 04:09:33;;;;;;;9.05;7.90;;;;;;;5.07;58.90;99690.94;4965163;28;100268;-67
2021/01/29 04:12:27;;;;;;;9.13;8.10;;;;;;;4.91;59.88;99690.66;4968838;28;98484;-68
2021/01/29 04:15:23;;;;;;;10.27;9.00;;;;;;;4.86;60.43;99700.31;4950783;28;97417;-68
2021/01/29 04:18:14;;;;;;;8.77;7.97;;;;;;;4.97;59.83;99701.59;4970962;28;99774;-68
2021/01/29 04:20:47;;;;;;;12.18;8.40;;;;;;;4.90;60.28;99681.19;4965761;28;98658;-68
2021/01/29 04:23:20;;;;;;;9.20;7.68;;;;;;;4.96;59.93;99670.66;4950407;28;98619;-69
2021/01/29 04:25:51;;;;;;;9.65;8.63;;;;;;;4.99;59.99;99668.81;4980389;28;98977;-69
2021/01/29 04:28:19;;;;;;;8.98;7.60;;;;;;;5.01;59.89;99666.19;4954291;28;96673;-69
2021/01/29 04:30:47;;;;;;;10.68;8.80;;;;;;;5.06;59.97;99666.00;4969720;28;98603;-69
2021/01/29 04:33:15;;;;;;;11.10;8.50;;;;;;;5.04;59.95;99660.88;4938226;28;98570;-69
2021/01/29 04:35:42;;;;;;;9.68;7.30;;;;;;;5.12;60.18;99656.28;4949901;28;97326;-69
2021/01/29 04:38:11;;;;;;;9.85;7.22;;;;;;;5.02;60.32;99654.94;4968615;28;96782;-68
2021/01/29 04:40:53;;;;;;;10.90;8.80;;;;;;;5.13;60.08;99662.31;4974916;28;98602;-69
2021/01/29 04:43:47;;;;;;;9.95;8.27;;;;;;;5.06;60.93;99681.50;4977448;28;98434;-69
2021/01/29 04:46:35;;;;;;;9.23;8.18;;;;;;;5.07;60.99;99678.88;4969073;28;97310;-69
2021/01/29 04:49:36;;;;;;;8.13;7.15;;;;;;;5.16;60.87;99665.59;4972773;28;96790;-69
2021/01/29 04:52:23;;;;;;;13.68;8.68;;;;;;;5.28;60.36;99637.63;4965894;28;98809;-69
2021/01/29 04:54:56;;;;;;;11.40;8.23;;;;;;;5.22;60.82;99623.22;4983047;28;98414;-70
2021/01/29 04:57:49;;;;;;;9.70;7.20;;;;;;;5.22;60.89;99618.03;4965522;28;100564;-70
2021/01/29 05:00:23;;;;;;;11.07;7.28;;;;;;;5.30;60.74;99609.97;4971232;28;96903;-69
2021/01/29 05:03:20;;;;;;;9.27;7.80;;;;;;;5.34;60.79;99602.06;4965335;28;98830;-69
2021/01/29 05:06:30;;;;;;;11.40;7.93;;;;;;;5.49;60.84;99585.94;4969230;28;97150;-69
2021/01/29 05:09:23;;;;;;;7.93;7.13;;;;;;;5.66;60.44;99587.03;4971047;28;97315;-69
2021/01/29 05:12:40;;;;;;;10.63;8.20;;;;;;;5.77;60.24;99608.94;4965717;28;97332;-68
2021/01/29 05:15:28;;;;;;;10.98;7.38;;;;;;;5.67;60.77;99630.91;4967618;28;98553;-67
2021/01/29 05:18:06;;;;;;;10.55;7.50;;;;;;;5.60;60.85;99655.34;4965647;28;99313;-67
2021/01/29 05:20:42;;;;;;;10.73;7.93;;;;;;;5.56;60.23;99630.50;4968940;28;100589;-67
2021/01/29 05:23:41;;;;;;;9.20;7.22;;;;;;;5.44;60.55;99597.38;4966123;28;96756;-68
2021/01/29 05:26:26;;;;;;;10.35;7.30;;;;;;;5.43;60.64;99590.50;4952809;28;98544;-68
2021/01/29 05:28:55;;;;;;;;;;;;;;;5.53;60.53;99613.34;4967915;28;100846;-68
2021/01/29 05:31:36;;;;;;;9.90;7.40;;;;;;;5.36;60.85;99602.00;4965151;28;96754;-68
2021/01/29 05:34:13;;;;;;;8.80;7.88;;;;;;;4.94;61.31;99587.22;4966273;28;97839;-68
2021/01/29 05:37:17;;;;;;;14.77;10.82;;;;;;;5.01;60.45;99609.34;4965032;28;98438;-68
2021/01/29 05:39:51;;;;;;;12.63;9.70;;;;;;;5.00;59.76;99605.06;4962530;28;97586;-68
2021/01/29 05:42:40;;;;;;;12.15;10.52;;;;;;;4.85;60.16;99592.75;4962715;28;99659;-67
2021/01/29 05:45:38;;;;;;;12.82;10.23;;;;;;;4.62;60.53;99589.25;4962132;28;99673;-67
2021/01/29 05:48:24;;;;;;;11.43;10.23;;;;;;;4.72;60.48;99582.00;4962673;28;98455;-68
2021/01/29 05:50:52;;;;;;;11.70;10.50;;;;;;;4.66;60.94;99557.25;4968999;28;98607;-68
2021/01/29 05:53:39;;;;;;;15.07;11.35;;;;;;;4.86;59.72;99569.44;4968213;28;98937;-68
2021/01/29 05:56:22;;;;;;;18.45;12.43;;;;;;;4.60;58.22;99557.50;4979658;28;97408;-68
2021/01/29 05:59:24;;;;;;;15.38;13.43;;;;;;;4.35;59.79;99542.03;4966883;28;98455;-69
2021/01/29 06:02:16;;;;;;;19.20;13.68;;;;;;;4.61;58.93;99553.16;4966562;28;98467;-68
2021/01/29 06:04:58;;;;;;;16.17;13.75;;;;;;;4.58;58.58;99536.06;4965440;28;97480;-69
2021/01/29 06:07:33;;;;;;;19.95;15.63;;;;;;;4.53;58.90;99545.72;4964192;28;97600;-68
2021/01/29 06:10:39;;;;;;;15.90;14.25;;;;;;;4.65;58.84;99540.09;4965725;28;98462;-69
2021/01/29 06:13:31;;;;;;;17.65;14.20;;;;;;;4.77;58.51;99537.94;4973858;28;98484;-68
2021/01/29 06:16:28;;;;;;;16.10;13.27;;;;;;;4.71;59.11;99551.94;4976714;28;96630;-70
2021/01/29 06:19:16;;;;;;;17.15;15.35;;;;;;;4.59;59.16;99526.56;4974214;28;97112;-69
2021/01/29 06:22:27;;;;;;;15.05;13.55;;;;;;;4.72;58.63;99540.69;4976496;28;98926;-69
2021/01/29 06:25:19;;;;;;;21.77;14.45;;;;;;;4.66;59.06;99561.59;4958324;28;98473;-69
2021/01/29 06:28:10;;;;;;;16.65;14.85;;;;;;;4.69;59.44;99554.56;4972194;28;96637;-68
2021/01/29 06:31:14;;;;;;;16.60;14.90;;;;;;;4.77;59.56;99563.78;4975750;28;96600;-68
2021/01/29 06:34:24;;;;;;;20.97;14.97;;;;;;;4.71;59.43;99575.16;4971232;28;98592;-68
2021/01/29 06:37:28;;;;;;;16.38;13.77;;;;;;;4.71;59.23;99560.50;4966543;28;98373;-70
2021/01/29 06:40:12;;;;;;;17.95;15.98;;;;;;;4.83;58.53;99527.38;4975180;28;96605;-71
2021/01/29 06:42:48;;;;;;;;;;;;;;;4.86;58.80;99515.22;4977792;28;96765;-71
2021/01/29 06:45:18;;;;;;;;;;;;;;;4.82;59.33;99518.81;4977010;28;98602;-66
2021/01/29 06:47:56;;;;;;;16.73;13.85;;;;;;;4.90;59.12;99524.53;4973737;28;97265;-66
2021/01/29 06:50:25;;;;;;;20.95;16.65;;;;;;;4.68;60.84;99534.78;4973037;28;96654;-66
2021/01/29 06:53:19;;;;;;;21.17;16.35;;;;;;;4.50;60.72;99543.22;4964157;28;97688;-68
2021/01/29 06:56:10;;;;;;;20.73;17.52;;;;;;;4.53;61.03;99530.22;4966410;28;98526;-68
2021/01/29 06:59:10;;;;;;;19.20;17.35;;;;;;;4.53;60.66;99525.06;4964702;28;98581;-66
2021/01/29 07:02:02;;;;;;;23.38;17.98;;;;;;;4.64;60.93;99516.91;4970625;28;96647;-66
2021/01/29 07:04:34;;;;;;;23.38;18.70;;;;;;;4.59;61.31;99511.94;4966291;28;96700;-72
2021/01/29 07:07:41;;;;;;;21.52;19.20;;;;;;;4.67;61.29;99507.31;4972006;28;98541;-70
2021/01/29 07:10:29;;;;;;;20.48;18.38;;;;;;;4.93;59.62;99502.88;4957901;28;98657;-69
2021/01/29 07:13:13;;;;;;;23.48;18.23;;;;;;;4.85;61.05;99515.28;4971621;28;97288;-69
2021/01/29 07:15:44;;;;;;;21.10;18.90;;;;;;;4.98;60.42;99521.63;4972148;28;97140;-67
2021/01/29 07:18:49;;;;;;;33.70;20.27;;;;;;;5.01;60.58;99534.44;4957171;28;98492;-69
2021/01/29 07:21:37;;;;;;;22.30;19.85;;;;;;;5.10;60.33;99533.22;4973144;28;98604;-69
2021/01/29 07:24:26;;;;;;;20.17;18.25;;;;;;;5.15;60.20;99537.31;4972988;28;96605;-66
2021/01/29 07:27:08;;;;;;;22.80;20.23;;;;;;;5.13;60.12;99569.28;4974573;28;96558;-66
2021/01/29 07:29:53;;;;;;;25.95;18.55;;;;;;;4.60;60.74;99559.22;4974581;28;97719;-66
2021/01/29 07:32:27;;;;;;;21.73;19.17;;;;;;;4.71;61.62;99539.03;4974346;28;98482;-65
2021/01/29 07:35:11;;;;;;;20.05;17.77;;;;;;;4.62;62.04;99560.00;4973796;28;96751;-67
2021/01/29 07:38:05;;;;;;;21.60;18.33;;;;;;;4.50;62.13;99555.28;4970787;28;96764;-67
2021/01/29 07:40:34;;;;;;;22.75;18.27;;;;;;;4.67;60.56;99558.94;4954603;28;98878;-66
2021/01/29 07:43:25;;;;;;;23.17;18.02;;;;;;;4.72;60.66;99589.75;4974958;28;98521;-65
2021/01/29 07:46:14;;;;;;;25.83;18.15;;;;;;;4.76;60.51;99603.41;4975032;28;96872;-66
2021/01/29 07:48:44;;;;;;;23.55;19.70;;;;;;;4.93;59.42;99607.03;4967334;28;97094;-66
2021/01/29 07:51:49;;;;;;;27.35;19.08;;;;;;;4.88;59.00;99608.94;4967589;28;98445;-65
2021/01/29 07:54:54;;;;;;;23.50;19.35;;;;;;;4.83;58.72;99613.44;4960552;28;96607;-64
2021/01/29 07:57:55;;;;;;;24.17;17.83;;;;;;;4.48;59.31;99622.47;4964733;28;96882;-64
2021/01/29 08:00:42;;;;;;;28.17;21.08;;;;;;;4.45;60.08;99630.31;4971029;28;96689;-65
2021/01/29 08:03:42;;;;;;;26.35;21.48;;;;;;;4.57;59.96;99624.69;4966020;28;98640;-63
2021/01/29 08:06:27;;;;;;;26.50;21.83;;;;;;;4.69;59.63;99613.13;4967132;28;98670;-62
2021/01/29 08:09:02;;;;;;;25.55;20.48;;;;;;;4.60;59.77;99609.13;4956143;28;96984;-65
2021/01/29 08:11:29;;;;;;;24.05;19.15;;;;;;;4.80;59.61;99603.25;4955452;28;97159;-68
2021/01/29 08:14:37;;;;;;;24.30;19.92;;;;;;;4.88;59.18;99601.19;4952184;28;98634;-65
2021/01/29 08:17:12;;;;;;;22.15;19.40;;;;;;;4.88;59.34;99602.94;4969057;28;98456;-65
2021/01/29 08:19:45;;;;;;;;;;;;;;;4.95;58.99;99596.63;4954793;28;96859;-67
2021/01/29 08:22:30;;;;;;;25.73;18.80;;;;;;;4.85;59.17;99603.06;4967479;28;96790;-65
2021/01/29 08:25:02;;;;;;;24.13;19.50;;;;;;;4.84;59.56;99616.84;4969217;28;98504;-64
2021/01/29 08:27:47;;;;;;;23.10;19.88;;;;;;;4.79;59.68;99627.34;4971488;28;98622;-64
2021/01/29 08:30:32;;;;;;;25.20;19.85;;;;;;;4.90;59.17;99611.47;4968214;28;97155;-68
2021/01/29 08:33:59;;;;;;;24.42;20.13;;;;;;;4.87;59.71;99611.59;4968245;28;96783;-66
2021/01/29 08:37:04;;;;;;;25.35;19.75;;;;;;;4.86;59.31;99597.84;4968774;28;100228;-65
2021/01/29 08:39:44;;;;;;;30.90;21.02;;;;;;;5.14;59.19;99583.88;4967259;28;98861;-66
2021/01/29 08:42:33;;;;;;;24.17;21.60;;;;;;;5.43;57.78;99581.03;4971372;28;96682;-63
2021/01/29 08:45:09;;;;;;;22.17;19.67;;;;;;;6.06;55.95;99565.53;4963600;28;96884;-66
2021/01/29 08:47:54;;;;;;;25.20;22.30;;;;;;;6.46;53.99;99551.72;4966148;28;98458;-67
2021/01/29 08:50:27;;;;;;;22.85;18.20;;;;;;;6.32;54.85;99553.22;4966205;28;98973;-64
2021/01/29 08:53:15;;;;;;;22.02;17.65;;;;;;;6.24;54.90;99538.88;4972303;28;96857;-66
2021/01/29 08:55:52;;;;;;;24.48;19.90;;;;;;;5.66;56.44;99530.97;4973254;28;96609;-66
2021/01/29 08:58:34;;;;;;;22.92;19.30;;;;;;;5.75;56.40;99527.16;4947726;28;98610;-63
2021/01/29 09:01:27;;;;;;;26.15;20.15;;;;;;;5.86;56.30;99535.31;4975807;28;98618;-63
2021/01/29 09:03:59;;;;;;;24.05;20.75;;;;;;;5.36;57.10;99535.63;4974486;28;96903;-65
2021/01/29 09:06:41;;;;;;;23.63;18.88;;;;;;;5.64;56.97;99527.59;4975831;28;96590;-66
2021/01/29 09:09:14;;;;;;;29.33;20.55;;;;;;;5.53;57.35;99527.19;4958354;28;98508;-65
2021/01/29 09:11:49;;;;;;;30.30;20.33;;;;;;;5.26;57.80;99529.97;4975951;28;98696;-64
2021/01/29 09:14:37;;;;;;;24.15;21.08;;;;;;;5.42;57.72;99516.44;4965990;28;96648;-67
2021/01/29 09:17:10;;;;;;;30.35;22.08;;;;;;;5.66;57.32;99512.88;4964654;28;99543;-64
2021/01/29 09:19:41;;;;;;;27.95;20.75;;;;;;;5.66;57.00;99543.91;4949857;28;98426;-64
2021/01/29 09:22:20;;;;;;;27.25;21.63;;;;;;;5.49;57.33;99543.75;4963694;28;98684;-65
2021/01/29 09:25:10;;;;;;;28.98;22.42;;;;;;;5.68;56.85;99507.63;4964787;28;97192;-65
2021/01/29 09:27:55;;;;;;;26.55;20.98;;;;;;;5.59;57.62;99475.22;4964050;28;97893;-65
2021/01/29 09:30:45;;;;;;;26.83;22.15;;;;;;;5.73;57.45;99470.31;4963689;28;98378;-66
2021/01/29 09:33:14;;;;;;;24.10;20.85;;;;;;;5.96;56.53;99473.69;4959717;28;100617;-67
2021/01/29 09:35:46;;;;;;;31.90;21.95;;;;;;;5.92;56.54;99491.13;4969410;28;97694;-66
2021/01/29 09:38:15;;;;;;;26.30;21.73;;;;;;;5.98;56.25;99477.06;4969690;28;96760;-66
2021/01/29 09:41:00;;;;;;;27.98;24.92;;;;;;;5.79;57.39;99472.66;4971898;28;98644;-67
2021/01/29 09:43:46;;;;;;;34.17;22.95;;;;;;;5.95;57.18;99459.09;4961286;28;98231;-67
2021/01/29 09:46:18;;;;;;;25.88;21.63;;;;;;;6.08;57.01;99460.25;4967180;28;98352;-65
2021/01/29 09:48:47;;;;;;;29.02;21.15;;;;;;;6.09;57.31;99464.50;4968369;28;98212;-66
2021/01/29 09:51:27;;;;;;;36.40;22.48;;;;;;;6.15;57.13;99458.22;4971238;28;98689;-67
2021/01/29 09:54:42;;;;;;;28.88;22.63;;;;;;;6.07;56.32;99479.25;4962310;28;98374;-66
2021/01/29 09:57:31;;;;;;;26.67;21.98;;;;;;;6.02;57.20;99499.31;4964774;28;96740;-64
2021/01/29 10:00:16;;;;;;;33.33;23.33;;;;;;;6.12;56.92;99487.66;4967232;28;96639;-63
2021/01/29 10:03:12;;;;;;;30.58;22.88;;;;;;;6.05;56.17;99481.06;4968117;28;98551;-64
2021/01/29 10:06:07;;;;;;;37.05;24.40;;;;;;;5.88;57.34;99496.44;4965533;28;98569;-63
2021/01/29 10:08:42;;;;;;;24.48;21.13;;;;;;;5.85;56.89;99497.41;4972494;28;96938;-63
2021/01/29 10:11:47;;;;;;;32.05;24.02;;;;;;;5.86;57.83;99496.53;4969276;28;96746;-65
2021/01/29 10:14:21;;;;;;;24.65;21.98;;;;;;;6.07;57.59;99501.69;4970075;28;98609;-64
2021/01/29 10:17:04;;;;;;;27.20;22.88;;;;;;;6.24;56.41;99501.81;4970620;28;98509;-62
2021/01/29 10:19:38;;;;;;;30.70;24.02;;;;;;;6.22;56.40;99540.69;4970453;28;96591;-65
2021/01/29 10:22:06;;;;;;;27.38;23.30;;;;;;;6.21;56.52;99527.81;4967189;28;97250;-62
2021/01/29 10:24:42;;;;;;;31.63;21.48;;;;;;;6.23;56.32;99528.59;4968183;28;99799;-64
2021/01/29 10:27:23;;;;;;;26.48;22.73;;;;;;;6.22;56.47;99545.84;4964669;28;98948;-62
2021/01/29 10:30:13;;;;;;;25.73;21.73;;;;;;;6.32;56.03;99519.59;4975626;28;96700;-63
2021/01/29 10:32:39;;;;;;;25.08;22.35;;;;;;;6.20;56.64;99524.41;4967512;28;98116;-66
2021/01/29 10:35:18;;;;;;;24.80;22.08;;;;;;;6.02;57.11;99531.22;4953571;28;98514;-64
2021/01/29 10:37:48;;;;;;;25.13;22.10;;;;;;;6.18;57.43;99510.69;4968732;28;98618;-62
2021/01/29 10:40:34;;;;;;;28.02;23.27;;;;;;;5.96;57.79;99517.69;4968639;28;97138;-64
2021/01/29 10:43:27;;;;;;;25.88;23.08;;;;;;;6.24;57.77;99523.34;4971965;28;96817;-64
2021/01/29 10:46:15;;;;;;;26.05;22.27;;;;;;;6.38;57.34;99517.56;4971454;28;99824;-65
2021/01/29 10:49:01;;;;;;;25.33;22.42;;;;;;;6.51;57.09;99530.81;4966051;28;98531;-66
2021/01/29 10:51:37;;;;;;;24.85;22.30;;;;;;;6.50;56.34;99524.81;4970620;28;96875;-63
2021/01/29 10:54:04;;;;;;;25.23;22.23;;;;;;;6.61;56.75;99532.09;4966983;28;96923;-64
2021/01/29 10:56:39;;;;;;;35.17;22.85;;;;;;;6.73;56.35;99521.16;4953148;28;98647;-65
2021/01/29 10:59:10;;;;;;;25.73;21.52;;;;;;;6.63;56.49;99535.44;4966667;28;98437;-64
2021/01/29 11:01:38;;;;;;;30.83;24.38;;;;;;;6.93;55.64;99528.03;4989474;28;96858;-65
2021/01/29 11:04:08;;;;;;;23.90;21.40;;;;;;;7.04;55.54;99541.31;4963982;28;96901;-63
2021/01/29 11:07:03;;;;;;;30.17;23.45;;;;;;;7.12;55.21;99533.16;4970850;28;98272;-64
2021/01/29 11:09:30;;;;;;;31.20;26.02;;;;;;;7.22;54.91;99526.63;4967975;28;98736;-66
2021/01/29 11:12:01;;;;;;;26.77;23.52;;;;;;;7.30;54.73;99527.13;4974940;28;96586;-63
2021/01/29 11:14:36;;;;;;;23.67;21.20;;;;;;;7.37;54.19;99524.25;4973153;28;96571;-67
2021/01/29 11:17:18;;;;;;;25.80;22.63;;;;;;;7.42;54.05;99519.66;4954418;28;98619;-66
2021/01/29 11:19:46;;;;;;;33.05;23.08;;;;;;;7.42;53.56;99512.72;4963087;28;98768;-65
2021/01/29 11:22:18;;;;;;;24.92;21.80;;;;;;;7.40;52.67;99495.56;4989435;28;97195;-67
2021/01/29 11:25:30;;;;;;;29.17;22.05;;;;;;;7.31;53.21;99508.06;4960081;28;96516;-65
2021/01/29 11:28:10;;;;;;;28.23;22.38;;;;;;;7.20;54.37;99478.38;4963269;28;98467;-65
2021/01/29 11:30:43;;;;;;;26.10;22.88;;;;;;;7.33;53.22;99444.00;4956914;28;98413;-66
2021/01/29 11:33:12;;;;;;;27.33;23.42;;;;;;;7.29;53.41;99437.28;4952613;28;96736;-67
2021/01/29 11:35:43;;;;;;;28.55;24.25;;;;;;;7.10;53.79;99444.28;4973462;28;96613;-66
2021/01/29 11:38:18;;;;;;;25.88;22.30;;;;;;;7.19;53.53;99450.78;4971393;28;97552;-66
2021/01/29 11:40:59;;;;;;;25.48;22.63;;;;;;;6.99;54.13;99460.38;4970794;28;98438;-65
2021/01/29 11:43:39;;;;;;;29.63;22.55;;;;;;;7.07;54.19;99466.00;4962068;28;97034;-64
2021/01/29 11:46:49;;;;;;;27.20;24.25;;;;;;;7.02;55.46;99467.97;4960158;28;96529;-66
2021/01/29 11:49:18;;;;;;;38.15;24.08;;;;;;;7.09;54.96;99456.41;4970284;28;98363;-66
2021/01/29 11:52:16;;;;;;;25.90;22.92;;;;;;;7.29;54.43;99447.66;4956488;28;98590;-67
2021/01/29 11:54:52;;;;;;;25.20;22.50;;;;;;;7.36;54.06;99432.66;4973320;28;96985;-65
2021/01/29 11:57:32;;;;;;;25.83;23.02;;;;;;;7.44;54.20;99414.94;4971996;28;96895;-67
2021/01/29 12:00:08;;;;;;;30.88;22.58;;;;;;;7.67;53.35;99419.00;4982940;28;98397;-67
2021/01/29 12:02:43;;;;;;;36.00;23.35;;;;;;;7.71;53.34;99415.28;4967008;28;98543;-66
2021/01/29 12:05:18;;;;;;;28.27;22.88;;;;;;;7.86;53.48;99417.09;4967208;28;96607;-67
2021/01/29 12:08:17;;;;;;;30.42;23.38;;;;;;;7.98;53.17;99413.03;4956544;28;96616;-67
2021/01/29 12:11:11;;;;;;;23.17;20.70;;;;;;;8.01;52.33;99412.88;4960203;28;98532;-67
2021/01/29 12:13:48;;;;;;;24.05;21.42;;;;;;;8.05;53.00;99405.78;4964729;28;97310;-67
2021/01/29 12:16:23;;;;;;;24.35;21.90;;;;;;;8.10;52.94;99398.59;4953248;28;96671;-67
2021/01/29 12:18:50;;;;;;;;;;;;;;;8.13;52.81;99413.97;4953535;28;96975;-63
2021/01/29 12:21:23;;;;;;;23.73;19.25;;;;;;;8.07;52.68;99388.34;4966020;28;98595;-68
2021/01/29 12:24:22;;;;;;;23.08;19.75;;;;;;;8.12;52.77;99407.94;4970453;28;98543;-66
2021/01/29 12:27:16;;;;;;;23.88;21.25;;;;;;;8.23;52.54;99401.34;4954850;28;97790;-65
2021/01/29 12:30:05;;;;;;;24.38;21.80;;;;;;;8.04;52.83;99393.69;4971024;28;96936;-66
2021/01/29 12:32:37;;;;;;;25.88;21.55;;;;;;;8.01;53.05;99389.50;4976076;28;98847;-65
2021/01/29 12:35:21;;;;;;;26.88;20.67;;;;;;;7.98;53.26;99376.69;4975836;28;98426;-65
2021/01/29 12:38:08;;;;;;;23.63;20.52;;;;;;;8.05;53.33;99364.25;4976955;28;96667;-64
2021/01/29 12:40:59;;;;;;;27.10;23.08;;;;;;;7.93;53.21;99372.66;4975968;28;97160;-63
2021/01/29 12:43:32;;;;;;;29.00;22.65;;;;;;;7.96;53.68;99368.16;4973310;28;98597;-63
2021/01/29 12:46:02;;;;;;;27.17;23.75;;;;;;;7.93;53.95;99383.03;4976074;28;98708;-63
2021/01/29 12:48:40;;;;;;;32.20;24.17;;;;;;;7.72;54.71;99361.66;4958293;28;97229;-64
2021/01/29 12:51:19;;;;;;;29.80;23.08;;;;;;;7.91;54.56;99353.75;4974304;28;96711;-65